Time;durP1;ratioP1;P1;durP2;ratioP2;P2;SDS_P1;SDS_P2;PMS_P1;PMS_P2;Temp;Humidity;BMP_temperature;BMP_pressure;BME280_temperature;BME280_humidity;BME280_pressure;Samples;Min_cycle;Max_cycle;Signal;HPM_P1;HPM_P2
2022/06/12 00:00:46;;;;;;;5.13;4.63;;;;;;;16.81;100.00;94232.56;5092968;28;20654;-60
2022/06/12 00:03:14;;;;;;;5.70;5.20;;;;;;;16.86;100.00;94235.41;5093170;28;20211;-64
2022/06/12 00:05:42;;;;;;;5.43;4.82;;;;;;;16.83;100.00;94243.44;5092175;28;20259;-64
2022/06/12 00:08:08;;;;;;;5.47;4.97;;;;;;;16.76;100.00;94240.81;5093127;28;20211;-69
2022/06/12 00:10:36;;;;;;;5.25;4.75;;;;;;;16.76;100.00;94240.00;5092843;28;20188;-63
2022/06/12 00:13:03;;;;;;;6.05;5.45;;;;;;;16.71;100.00;94243.09;5093036;28;20226;-64
2022/06/12 00:15:30;;;;;;;6.60;5.70;;;;;;;16.70;100.00;94238.91;5092835;28;20199;-63
2022/06/12 00:17:56;;;;;;;7.72;6.03;;;;;;;16.71;100.00;94237.16;5092789;28;20201;-61
2022/06/12 00:20:23;;;;;;;6.40;5.28;;;;;;;16.74;100.00;94232.50;5092933;28;20213;-62
2022/06/12 00:22:50;;;;;;;7.78;5.70;;;;;;;16.70;100.00;94231.22;5092704;28;20603;-62
2022/06/12 00:25:18;;;;;;;7.50;5.80;;;;;;;16.73;100.00;94227.50;5092662;28;20181;-59
2022/06/12 00:27:44;;;;;;;7.93;6.10;;;;;;;16.70;100.00;94231.22;5092524;28;20200;-62
2022/06/12 00:30:13;;;;;;;7.30;5.75;;;;;;;16.65;100.00;94225.84;5092521;28;20258;-62
2022/06/12 00:32:38;;;;;;;7.22;6.30;;;;;;;16.63;100.00;94230.34;5092291;28;20215;-61
2022/06/12 00:35:07;;;;;;;8.68;6.15;;;;;;;16.63;100.00;94230.34;5092320;28;20689;-61
2022/06/12 00:37:34;;;;;;;8.38;5.88;;;;;;;16.62;100.00;94225.41;5092353;28;20221;-61
2022/06/12 00:40:00;;;;;;;7.10;6.40;;;;;;;16.57;100.00;94228.47;5092291;28;20264;-62
2022/06/12 00:42:30;;;;;;;10.05;5.97;;;;;;;16.55;100.00;94232.19;5074058;28;20188;-61
2022/06/12 00:44:58;;;;;;;6.80;6.15;;;;;;;16.61;100.00;94231.50;5074062;28;20646;-62
2022/06/12 00:47:25;;;;;;;7.05;5.97;;;;;;;16.60;100.00;94228.13;5092096;28;20568;-61
2022/06/12 00:49:53;;;;;;;7.55;6.20;;;;;;;16.58;100.00;94227.50;5092154;28;20207;-61
2022/06/12 00:52:42;;;;;;;7.28;6.18;;;;;;;16.56;100.00;94220.97;5073956;28;20565;-61
2022/06/12 00:55:24;;;;;;;7.68;5.82;;;;;;;16.59;100.00;94218.03;5073974;28;20652;-61
2022/06/12 00:57:52;;;;;;;6.28;5.68;;;;;;;16.61;100.00;94214.31;5092095;28;20562;-62
2022/06/12 01:00:19;;;;;;;7.47;6.03;;;;;;;16.58;100.00;94217.22;5092310;28;20173;-62
2022/06/12 01:02:44;;;;;;;15.05;6.32;;;;;;;16.61;100.00;94218.66;5092076;28;20249;-63
2022/06/12 01:08:01;;;;;;;8.82;6.80;;;;;;;16.56;100.00;94219.19;5092490;28;20230;-62
2022/06/12 01:10:28;;;;;;;7.45;6.55;;;;;;;16.53;100.00;94209.28;5091819;28;20176;-60
2022/06/12 01:13:23;;;;;;;10.73;6.85;;;;;;;16.54;100.00;94218.56;5091884;28;20211;-61
2022/06/12 01:15:54;;;;;;;8.77;6.47;;;;;;;16.54;100.00;94210.84;5089531;28;20220;-61
2022/06/12 01:18:24;;;;;;;8.43;5.97;;;;;;;16.48;100.00;94200.50;5073996;28;20208;-60
2022/06/12 01:21:05;;;;;;;9.38;7.20;;;;;;;16.44;100.00;94205.16;5073949;28;20238;-60
2022/06/12 01:23:54;;;;;;;8.55;6.80;;;;;;;16.42;100.00;94204.53;5091932;28;20204;-63
2022/06/12 01:26:27;;;;;;;8.45;6.47;;;;;;;16.39;100.00;94206.66;5091902;28;20184;-61
2022/06/12 01:29:01;;;;;;;10.88;6.80;;;;;;;16.40;100.00;94196.22;5092567;28;20200;-60
2022/06/12 01:31:30;;;;;;;8.02;6.78;;;;;;;16.47;100.00;94199.69;5091711;28;20558;-60
2022/06/12 01:33:58;;;;;;;7.40;6.70;;;;;;;16.38;100.00;94195.59;5073687;28;20200;-60
2022/06/12 01:36:37;;;;;;;8.65;6.78;;;;;;;16.41;100.00;94199.59;5091621;28;20211;-60
2022/06/12 01:39:08;;;;;;;7.85;7.03;;;;;;;16.37;100.00;94198.34;5073554;28;20235;-61
2022/06/12 01:41:41;;;;;;;8.70;6.53;;;;;;;16.38;100.00;94197.41;5091737;28;20173;-60
2022/06/12 01:44:18;;;;;;;7.53;6.82;;;;;;;16.43;100.00;94197.66;5091976;28;20295;-59
2022/06/12 01:46:54;;;;;;;8.63;6.35;;;;;;;16.42;100.00;94206.34;5091545;28;20602;-62
2022/06/12 01:49:33;;;;;;;8.07;6.18;;;;;;;16.46;100.00;94199.88;5092025;28;20192;-61
2022/06/12 01:52:23;;;;;;;11.25;6.65;;;;;;;16.45;100.00;94206.78;5091649;28;20637;-63
2022/06/12 01:55:11;;;;;;;6.88;6.03;;;;;;;16.45;100.00;94198.28;5091783;28;20172;-63
2022/06/12 01:57:50;;;;;;;7.35;6.40;;;;;;;16.53;100.00;94208.47;5073371;28;20556;-64
2022/06/12 02:00:20;;;;;;;9.20;5.72;;;;;;;16.51;100.00;94206.09;5091659;28;20324;-60
2022/06/12 02:02:55;;;;;;;9.40;6.47;;;;;;;16.52;100.00;94201.75;5073275;28;20204;-62
2022/06/12 02:05:24;;;;;;;6.72;6.03;;;;;;;16.56;100.00;94203.78;5091544;28;20255;-61
2022/06/12 02:08:14;;;;;;;6.57;5.97;;;;;;;16.50;100.00;94207.06;5091431;28;20265;-62
2022/06/12 02:10:42;;;;;;;6.55;5.93;;;;;;;16.51;100.00;94206.09;5091458;28;20247;-62
2022/06/12 02:13:15;;;;;;;6.45;5.95;;;;;;;16.45;100.00;94205.97;5073219;28;20212;-63
2022/06/12 02:15:40;;;;;;;8.45;5.80;;;;;;;16.43;100.00;94203.59;5074040;28;20207;-62
2022/06/12 02:18:08;;;;;;;5.90;5.40;;;;;;;16.47;100.00;94204.03;5073100;28;20590;-62
2022/06/12 02:20:48;;;;;;;7.43;6.53;;;;;;;16.46;100.00;94203.22;5091586;28;20188;-62
2022/06/12 02:23:23;;;;;;;7.93;6.07;;;;;;;16.48;100.00;94198.69;5091502;28;20696;-61
2022/06/12 02:25:52;;;;;;;6.40;5.70;;;;;;;16.47;100.00;94193.75;5073535;28;20634;-62
2022/06/12 02:28:29;;;;;;;9.45;6.10;;;;;;;16.42;100.00;94196.06;5074630;28;20196;-63
2022/06/12 02:31:00;;;;;;;7.38;6.47;;;;;;;16.37;100.00;94198.34;5076830;28;20684;-63
2022/06/12 02:33:35;;;;;;;8.73;6.28;;;;;;;16.40;100.00;94203.16;5076453;28;20230;-63
2022/06/12 02:36:04;;;;;;;7.82;6.13;;;;;;;16.45;100.00;94193.94;5076483;28;20208;-64
2022/06/12 02:38:42;;;;;;;7.10;6.40;;;;;;;16.44;100.00;94201.81;5094774;28;20682;-64
2022/06/12 02:41:26;;;;;;;6.40;5.80;;;;;;;16.37;100.00;94208.63;5076477;28;20180;-64
2022/06/12 02:43:57;;;;;;;6.03;5.53;;;;;;;16.29;100.00;94193.31;5094492;28;20212;-63
2022/06/12 02:46:30;;;;;;;8.13;6.72;;;;;;;16.34;100.00;94199.50;5094808;28;20171;-62
2022/06/12 02:48:56;;;;;;;6.53;5.65;;;;;;;16.31;100.00;94204.19;5083780;22;20557;-62
2022/06/12 02:51:36;;;;;;;9.35;5.90;;;;;;;16.29;100.00;94191.53;5094582;28;20671;-60
2022/06/12 02:54:20;;;;;;;6.88;6.18;;;;;;;16.29;100.00;94204.38;5094772;28;20609;-67
2022/06/12 02:56:58;;;;;;;6.47;5.82;;;;;;;16.34;100.00;94206.41;5094739;28;20211;-62
2022/06/12 02:59:35;;;;;;;8.82;6.25;;;;;;;16.29;100.00;94211.25;5094784;28;20196;-60
2022/06/12 03:02:30;;;;;;;9.45;6.45;;;;;;;16.27;100.00;94211.44;5094331;28;20182;-62
2022/06/12 03:05:20;;;;;;;9.18;6.15;;;;;;;16.27;100.00;94214.00;5065652;28;20250;-62
2022/06/12 03:07:50;;;;;;;9.50;7.38;;;;;;;16.19;100.00;94203.81;5094381;28;20216;-61
2022/06/12 03:10:21;;;;;;;7.53;6.72;;;;;;;16.23;100.00;94214.53;5094181;28;20174;-62
2022/06/12 03:12:48;;;;;;;6.57;5.97;;;;;;;16.20;100.00;94213.09;5094126;28;20551;-61
2022/06/12 03:15:55;;;;;;;7.78;6.78;;;;;;;16.16;100.00;94213.66;5093868;28;20267;-60
2022/06/12 03:18:27;;;;;;;8.05;7.25;;;;;;;16.22;100.00;94210.38;5091059;28;20216;-60
2022/06/12 03:21:05;;;;;;;8.00;7.20;;;;;;;16.21;100.00;94214.72;5094279;28;20167;-60
2022/06/12 03:23:34;;;;;;;6.88;6.28;;;;;;;16.20;100.00;94207.97;5094323;28;20207;-61
2022/06/12 03:26:04;;;;;;;7.60;6.70;;;;;;;16.15;100.00;94215.41;5093991;28;20180;-63
2022/06/12 03:28:41;;;;;;;16.00;11.00;;;;;;;16.21;100.00;94208.78;5094030;28;20205;-61
2022/06/12 03:31:22;;;;;;;7.20;6.38;;;;;;;16.20;100.00;94212.31;5093938;28;20182;-59
2022/06/12 03:34:07;;;;;;;8.30;6.93;;;;;;;16.22;100.00;94205.25;5093986;28;20601;-62
2022/06/12 03:36:43;;;;;;;7.22;6.50;;;;;;;16.27;100.00;94203.75;5075462;28;20196;-59
2022/06/12 03:39:16;;;;;;;10.13;7.55;;;;;;;16.20;100.00;94202.84;5075431;28;20211;-61
2022/06/12 03:41:47;;;;;;;7.97;7.25;;;;;;;16.21;100.00;94203.63;5093957;28;20171;-64
2022/06/12 03:44:27;;;;;;;8.23;6.90;;;;;;;16.29;100.00;94201.81;5075398;28;20260;-61
2022/06/12 03:46:53;;;;;;;7.57;6.82;;;;;;;16.35;100.00;94213.94;5093609;28;20164;-63
2022/06/12 03:49:33;;;;;;;16.80;7.57;;;;;;;16.38;100.00;94210.22;5093674;28;20216;-60
2022/06/12 03:52:21;;;;;;;9.93;7.10;;;;;;;16.40;100.00;94203.16;5093341;28;20164;-61
2022/06/12 03:55:01;;;;;;;8.50;6.22;;;;;;;16.41;100.00;94205.53;5093393;28;20181;-60
2022/06/12 03:57:56;;;;;;;7.78;6.88;;;;;;;16.38;100.00;94195.59;5093179;28;20204;-60
2022/06/12 04:00:29;;;;;;;8.20;7.40;;;;;;;16.43;100.00;94208.72;5091541;28;20216;-64
2022/06/12 04:03:11;;;;;;;7.75;6.95;;;;;;;16.43;100.00;94208.72;5074886;28;20237;-62
2022/06/12 04:05:47;;;;;;;9.75;8.48;;;;;;;16.53;100.00;94200.78;5075123;28;20237;-64
2022/06/12 04:08:19;;;;;;;9.38;8.15;;;;;;;16.46;100.00;94213.47;5074908;28;20203;-60
2022/06/12 04:10:46;;;;;;;8.70;7.80;;;;;;;16.35;100.00;94213.94;5093361;28;20172;-63
2022/06/12 04:13:15;;;;;;;9.10;7.25;;;;;;;16.34;100.00;94214.13;5093056;28;20340;-60
2022/06/12 04:15:55;;;;;;;8.82;8.02;;;;;;;16.37;100.00;94216.31;5074553;28;20597;-61
2022/06/12 04:18:22;;;;;;;9.75;7.45;;;;;;;16.36;100.00;94220.63;5074537;28;20208;-60
2022/06/12 04:20:50;;;;;;;8.80;7.88;;;;;;;16.34;100.00;94216.69;5092586;28;20180;-61
2022/06/12 04:23:33;;;;;;;11.77;8.10;;;;;;;16.35;100.00;94226.75;5074470;28;20204;-61
2022/06/12 04:26:38;;;;;;;8.90;8.07;;;;;;;16.33;100.00;94233.84;5074389;28;20180;-60
2022/06/12 04:29:10;;;;;;;13.43;11.52;;;;;;;16.40;100.00;94229.56;5090452;28;20247;-62
2022/06/12 04:31:35;;;;;;;8.88;8.00;;;;;;;16.40;100.00;94233.94;5092485;28;20197;-62
2022/06/12 04:34:15;;;;;;;8.93;8.02;;;;;;;16.41;100.00;94235.50;5099697;22;20227;-60
2022/06/12 04:36:44;;;;;;;10.70;8.68;;;;;;;16.40;100.00;94232.13;5073346;28;20234;-60
2022/06/12 04:39:13;;;;;;;10.95;8.27;;;;;;;16.41;100.00;94232.94;5099606;22;20224;-59
2022/06/12 04:41:39;;;;;;;11.68;9.25;;;;;;;16.40;100.00;94239.06;5092409;28;20185;-59
2022/06/12 04:44:05;;;;;;;10.18;8.65;;;;;;;16.32;100.00;94234.78;5074445;28;20192;-60
2022/06/12 04:46:37;;;;;;;11.68;9.55;;;;;;;16.35;100.00;94237.00;5092209;28;20229;-62
2022/06/12 04:49:03;;;;;;;11.35;9.43;;;;;;;16.42;100.00;94237.91;5092207;28;20196;-62
2022/06/12 04:51:29;;;;;;;13.18;8.27;;;;;;;16.38;100.00;94241.78;5091816;28;20200;-62
2022/06/12 04:53:55;;;;;;;9.68;8.70;;;;;;;16.44;100.00;94241.09;5107355;22;20226;-63
2022/06/12 04:56:22;;;;;;;10.85;9.20;;;;;;;16.45;100.00;94247.81;5073876;28;20631;-61
2022/06/12 04:58:49;;;;;;;13.18;10.65;;;;;;;16.43;100.00;94254.91;5092351;28;20574;-62
2022/06/12 05:01:15;;;;;;;11.18;10.02;;;;;;;16.45;100.00;94252.97;5091999;28;20278;-62
2022/06/12 05:03:41;;;;;;;13.65;12.23;;;;;;;16.48;100.00;94255.16;5092277;28;20283;-61
2022/06/12 05:06:07;;;;;;;11.48;10.32;;;;;;;16.52;100.00;94242.81;5091991;28;20195;-64
2022/06/12 05:08:33;;;;;;;12.18;10.88;;;;;;;16.54;100.00;94254.47;5073777;28;20204;-60
2022/06/12 05:11:00;;;;;;;11.30;10.20;;;;;;;16.59;100.00;94249.63;5091916;28;20172;-61
2022/06/12 05:13:25;;;;;;;15.63;10.02;;;;;;;16.57;100.00;94245.66;5091954;28;20285;-61
2022/06/12 05:15:50;;;;;;;11.18;10.07;;;;;;;16.61;100.00;94237.44;5091684;28;20265;-61
2022/06/12 05:18:19;;;;;;;10.80;9.80;;;;;;;16.60;100.00;94238.38;5091959;28;20201;-61
2022/06/12 05:20:45;;;;;;;11.00;9.88;;;;;;;16.64;100.00;94241.41;5091766;28;20187;-61
2022/06/12 05:23:11;;;;;;;11.52;9.73;;;;;;;16.68;100.00;94243.44;5091864;28;20200;-60
2022/06/12 05:25:37;;;;;;;15.10;9.35;;;;;;;16.68;100.00;94233.16;5091701;28;20263;-62
2022/06/12 05:28:03;;;;;;;10.18;9.10;;;;;;;16.72;100.00;94236.19;5091819;28;20204;-63
2022/06/12 05:30:32;;;;;;;12.35;8.95;;;;;;;16.73;100.00;94241.16;5091704;28;20284;-60
2022/06/12 05:32:59;;;;;;;11.73;9.20;;;;;;;16.79;100.00;94244.78;5091813;28;20266;-60
2022/06/12 05:35:26;;;;;;;11.52;9.38;;;;;;;16.77;100.00;94246.72;5091846;28;20176;-63
2022/06/12 05:37:52;;;;;;;11.85;9.40;;;;;;;16.83;100.00;94258.06;5091962;28;20752;-61
2022/06/12 05:40:22;;;;;;;9.45;8.20;;;;;;;16.83;100.00;94258.84;5073403;28;20204;-63
2022/06/12 05:42:49;;;;;;;10.27;8.80;;;;;;;16.94;100.00;94258.41;5091642;28;20222;-61
2022/06/12 05:45:19;;;;;;;9.77;8.48;;;;;;;17.00;100.00;94252.56;5091483;28;20207;-60
2022/06/12 05:47:49;;;;;;;13.23;9.52;;;;;;;17.07;100.00;94260.34;5073447;28;20235;-61
2022/06/12 05:50:16;;;;;;;10.45;8.63;;;;;;;17.13;100.00;94264.78;5091389;28;20161;-59
2022/06/12 05:52:41;;;;;;;9.57;8.68;;;;;;;17.07;100.00;94265.50;5091302;28;20184;-60
2022/06/12 05:55:08;;;;;;;13.15;8.95;;;;;;;17.11;100.00;94266.72;5091567;28;20188;-61
2022/06/12 05:57:34;;;;;;;12.30;9.55;;;;;;;17.11;100.00;94266.72;5091339;28;20294;-61
2022/06/12 05:59:59;;;;;;;13.73;11.02;;;;;;;17.12;100.00;94274.25;5091401;28;20551;-60
2022/06/12 06:02:25;;;;;;;9.52;8.63;;;;;;;17.12;100.00;94263.97;5091581;28;20225;-62
2022/06/12 06:04:50;;;;;;;10.98;9.00;;;;;;;17.14;100.00;94266.38;5084547;22;20227;-62
2022/06/12 06:07:16;;;;;;;11.15;9.10;;;;;;;17.19;100.00;94277.69;5095097;28;20558;-62
2022/06/12 06:09:41;;;;;;;10.27;8.93;;;;;;;17.28;100.00;94278.38;5095214;28;20192;-59
2022/06/12 06:12:08;;;;;;;8.73;7.85;;;;;;;17.35;100.00;94281.84;5095288;28;20642;-63
2022/06/12 06:14:33;;;;;;;9.70;8.75;;;;;;;17.38;100.00;94284.03;5095552;28;20207;-63
2022/06/12 06:16:59;;;;;;;10.55;8.73;;;;;;;17.33;100.00;94279.44;5095198;28;20200;-64
2022/06/12 06:19:24;;;;;;;9.80;8.93;;;;;;;17.33;100.00;94288.94;5077025;28;20581;-65
2022/06/12 06:21:50;;;;;;;11.52;10.20;;;;;;;17.38;100.00;94284.84;5094785;28;20655;-65
2022/06/12 06:24:16;;;;;;;10.60;8.25;;;;;;;17.33;100.00;94297.41;5095341;28;20261;-65
2022/06/12 06:26:42;;;;;;;11.52;8.73;;;;;;;17.39;100.00;94291.56;5094945;28;20536;-64
2022/06/12 06:29:08;;;;;;;12.52;9.80;;;;;;;17.37;100.00;94295.31;5102090;22;20244;-64
2022/06/12 06:31:34;;;;;;;9.25;8.35;;;;;;;17.33;100.00;94299.22;5094721;28;20225;-63
2022/06/12 06:34:00;;;;;;;11.77;9.68;;;;;;;17.34;100.00;94304.16;5095068;28;20201;-62
2022/06/12 06:36:25;;;;;;;14.07;12.07;;;;;;;17.43;100.00;94310.03;5101909;22;20239;-59
2022/06/12 06:38:53;;;;;;;12.65;11.35;;;;;;;17.45;100.00;94310.63;5094530;28;20207;-60
2022/06/12 06:41:19;;;;;;;15.38;13.57;;;;;;;17.42;100.00;94309.22;5076432;28;20184;-62
2022/06/12 06:46:29;;;;;;;10.32;9.32;;;;;;;17.52;100.00;94319.22;5095072;28;20657;-63
2022/06/12 06:48:54;;;;;;;11.88;8.98;;;;;;;17.54;100.00;94312.94;5059523;28;20196;-61
2022/06/12 06:51:20;;;;;;;10.35;9.20;;;;;;;17.58;100.00;94314.19;5095157;28;20180;-61
2022/06/12 06:53:46;;;;;;;10.15;8.95;;;;;;;17.57;100.00;94320.28;5094352;28;20242;-63
2022/06/12 06:56:11;;;;;;;11.23;9.50;;;;;;;17.60;100.00;94319.94;5076192;28;20204;-60
2022/06/12 06:58:37;;;;;;;10.82;9.02;;;;;;;18.08;100.00;94315.88;5094211;28;20196;-62
2022/06/12 07:01:03;;;;;;;9.63;8.50;;;;;;;18.08;100.00;94323.59;5094323;28;20263;-61
2022/06/12 07:03:30;;;;;;;11.30;10.20;;;;;;;18.04;100.00;94322.38;5075409;28;20268;-61
2022/06/12 07:05:56;;;;;;;13.35;10.25;;;;;;;18.06;100.00;94320.41;5094346;28;20191;-62
2022/06/12 07:08:24;;;;;;;13.88;10.57;;;;;;;18.02;100.00;94321.75;5093997;28;20222;-63
2022/06/12 07:10:52;;;;;;;10.15;9.15;;;;;;;17.86;100.00;94323.75;5075916;28;20196;-60
2022/06/12 07:13:18;;;;;;;10.05;9.05;;;;;;;17.81;100.00;94319.19;5093632;28;20200;-61
2022/06/12 07:15:45;;;;;;;10.30;9.30;;;;;;;18.10;100.00;94319.06;5093882;28;20719;-59
2022/06/12 07:18:12;;;;;;;12.52;10.32;;;;;;;18.24;100.00;94315.63;5093760;28;20192;-62
2022/06/12 07:20:42;;;;;;;9.88;8.82;;;;;;;17.95;100.00;94320.91;5093838;28;20180;-62
2022/06/12 07:23:08;;;;;;;10.63;9.63;;;;;;;17.90;100.00;94322.41;5075921;28;20188;-63
2022/06/12 07:25:40;;;;;;;11.05;9.50;;;;;;;17.83;100.00;94322.38;5093943;28;20199;-62
2022/06/12 07:28:06;;;;;;;15.82;12.40;;;;;;;17.84;100.00;94325.72;5075473;28;20619;-62
2022/06/12 07:30:32;;;;;;;12.98;10.15;;;;;;;17.86;100.00;94331.47;5093628;28;20173;-62
2022/06/12 07:32:57;;;;;;;10.90;9.85;;;;;;;17.85;100.00;94330.69;5093530;28;20260;-63
2022/06/12 07:35:23;;;;;;;11.77;10.55;;;;;;;17.84;100.00;94329.09;5091140;28;20249;-61
2022/06/12 07:37:49;;;;;;;10.32;8.95;;;;;;;17.83;100.00;94337.00;5093004;28;20580;-64
2022/06/12 07:40:34;;;;;;;13.00;8.93;;;;;;;17.79;100.00;94336.56;5093667;28;20200;-63
2022/06/12 07:42:59;;;;;;;12.07;9.00;;;;;;;17.78;100.00;94340.09;5092041;28;20215;-60
2022/06/12 07:45:25;;;;;;;10.88;8.90;;;;;;;17.77;100.00;94346.25;5091937;28;20564;-62
2022/06/12 07:47:50;;;;;;;11.13;10.02;;;;;;;17.71;100.00;94341.81;5093219;28;20584;-59
2022/06/12 07:50:16;;;;;;;9.95;8.93;;;;;;;17.73;100.00;94345.00;5093179;28;20233;-61
2022/06/12 07:52:42;;;;;;;17.92;15.05;;;;;;;17.73;100.00;94333.91;5090869;28;20639;-61
2022/06/12 07:55:10;;;;;;;18.23;12.48;;;;;;;17.83;100.00;94344.72;5091703;28;20209;-60
2022/06/12 07:57:38;;;;;;;12.00;10.57;;;;;;;17.82;100.00;94338.75;5093319;28;20651;-60
2022/06/12 08:00:05;;;;;;;11.10;10.00;;;;;;;17.88;100.00;94347.53;5093004;28;20616;-65
2022/06/12 08:02:32;;;;;;;9.98;8.68;;;;;;;17.88;100.00;94343.19;5092904;28;20589;-63
2022/06/12 08:04:57;;;;;;;11.23;10.10;;;;;;;17.98;100.00;94342.88;5093088;28;20255;-61
2022/06/12 08:07:23;;;;;;;9.27;8.30;;;;;;;18.08;100.00;94349.31;5091704;28;20267;-61
2022/06/12 08:09:48;;;;;;;13.32;10.40;;;;;;;18.10;100.00;94347.38;5092844;28;20599;-61
2022/06/12 08:12:14;;;;;;;11.02;9.38;;;;;;;18.14;100.00;94342.69;5093139;28;20680;-61
2022/06/12 08:14:40;;;;;;;11.18;9.57;;;;;;;18.18;100.00;94342.09;5092677;28;20188;-60
2022/06/12 08:17:05;;;;;;;12.00;10.10;;;;;;;18.33;100.00;94348.00;5091430;28;20212;-61
2022/06/12 08:22:16;;;;;;;10.82;9.32;;;;;;;18.40;100.00;94340.34;5092856;28;20196;-61
2022/06/12 08:24:42;;;;;;;11.88;10.18;;;;;;;18.50;100.00;94340.84;5074036;28;20207;-60
2022/06/12 08:27:08;;;;;;;11.10;10.00;;;;;;;18.41;100.00;94353.03;5092481;28;20249;-61
2022/06/12 08:29:33;;;;;;;14.40;12.00;;;;;;;18.42;100.00;94346.09;5092485;28;20212;-61
2022/06/12 08:32:04;;;;;;;11.48;9.98;;;;;;;18.72;100.00;94364.81;5092883;28;20187;-61
2022/06/12 08:34:40;;;;;;;12.38;10.30;;;;;;;18.67;100.00;94361.97;5092376;28;20275;-61
2022/06/12 08:37:13;;;;;;;12.30;11.02;;;;;;;18.42;100.00;94359.75;5092100;28;20302;-60
2022/06/12 08:39:39;;;;;;;11.38;10.25;;;;;;;18.46;100.00;94352.50;5092338;28;20196;-61
2022/06/12 08:42:24;;;;;;;12.02;10.65;;;;;;;18.46;100.00;94365.38;5092753;28;20176;-61
2022/06/12 08:45:05;;;;;;;14.30;12.13;;;;;;;18.38;100.00;94353.38;5090863;28;20221;-62
2022/06/12 08:47:50;;;;;;;24.77;21.20;;;;;;;18.49;100.00;94351.31;5074747;28;20222;-63
2022/06/12 08:50:35;;;;;;;9.63;8.73;;;;;;;18.58;100.00;94353.59;5092197;28;20160;-61
2022/06/12 08:53:11;;;;;;;11.45;10.35;;;;;;;18.58;100.00;94353.59;5092105;28;20746;-65
2022/06/12 08:55:45;;;;;;;11.73;10.43;;;;;;;18.52;100.00;94353.53;5091908;28;20282;-65
2022/06/12 08:58:30;;;;;;;12.30;9.55;;;;;;;18.62;100.00;94354.03;5073782;28;20192;-60
2022/06/12 09:00:58;;;;;;;11.18;10.02;;;;;;;18.57;100.00;94356.34;5060479;28;20193;-65
2022/06/12 09:03:27;;;;;;;11.82;8.90;;;;;;;18.59;100.00;94359.53;5092093;28;20214;-61
2022/06/12 09:05:55;;;;;;;9.75;8.77;;;;;;;18.57;100.00;94356.34;5090582;28;20267;-61
2022/06/12 09:08:30;;;;;;;8.95;8.10;;;;;;;18.63;100.00;94358.16;5091738;28;20200;-61
2022/06/12 09:11:07;;;;;;;10.90;9.32;;;;;;;18.87;100.00;94356.00;5092169;28;20252;-68
2022/06/12 09:14:03;;;;;;;9.45;8.55;;;;;;;18.83;100.00;94361.69;5091719;28;20267;-67
2022/06/12 09:16:49;;;;;;;11.35;8.80;;;;;;;18.61;100.00;94362.72;5091653;28;20216;-63
2022/06/12 09:19:43;;;;;;;9.75;8.60;;;;;;;18.62;100.00;94364.31;5099416;22;20333;-63
2022/06/12 09:22:22;;;;;;;9.35;8.45;;;;;;;18.62;100.00;94367.69;5091737;28;20252;-61
2022/06/12 09:24:54;;;;;;;9.15;8.20;;;;;;;18.63;100.00;94360.75;5071425;28;20176;-62
2022/06/12 09:27:43;;;;;;;8.23;7.43;;;;;;;18.56;100.00;94365.06;5053290;28;20199;-61
2022/06/12 09:30:21;;;;;;;8.27;7.45;;;;;;;18.70;100.00;94375.28;5071433;28;20231;-62
2022/06/12 09:33:10;;;;;;;8.15;7.20;;;;;;;18.78;100.00;94371.78;5070048;28;20551;-63
2022/06/12 09:35:41;;;;;;;9.45;8.45;;;;;;;19.02;100.00;94376.50;5071597;28;20167;-64
2022/06/12 09:38:34;;;;;;;8.85;8.02;;;;;;;19.01;100.00;94372.34;5086549;22;20228;-65
2022/06/12 09:41:02;;;;;;;7.50;6.80;;;;;;;18.78;100.00;94371.78;5095918;28;20180;-63
2022/06/12 09:43:34;;;;;;;8.90;7.57;;;;;;;18.74;100.00;94368.78;5095907;28;20235;-64
2022/06/12 09:46:19;;;;;;;15.48;13.85;;;;;;;18.96;100.00;94374.69;5095865;28;20195;-61
2022/06/12 09:49:15;;;;;;;8.63;7.82;;;;;;;18.93;100.00;94372.47;5095616;28;20210;-60
2022/06/12 09:51:47;;;;;;;9.43;7.78;;;;;;;18.90;100.00;94375.44;5095724;28;20193;-61
2022/06/12 09:54:46;;;;;;;8.45;7.32;;;;;;;18.79;100.00;94366.44;5095499;28;20287;-62
2022/06/12 09:57:33;;;;;;;10.75;7.25;;;;;;;18.60;100.00;94356.78;5095296;28;20337;-61
2022/06/12 10:00:16;;;;;;;8.43;7.43;;;;;;;18.65;100.00;94358.78;5077240;28;20180;-66
2022/06/12 10:03:06;;;;;;;9.80;8.40;;;;;;;18.62;100.00;94365.13;5077026;28;20211;-65
2022/06/12 10:05:45;;;;;;;9.27;7.68;;;;;;;18.65;100.00;94358.78;5095215;28;20164;-65
2022/06/12 10:08:21;;;;;;;9.15;8.30;;;;;;;18.63;100.00;94363.31;5084394;28;20221;-65
2022/06/12 10:11:08;;;;;;;9.80;8.18;;;;;;;18.54;100.00;94367.81;5094023;28;20194;-62
2022/06/12 10:14:05;;;;;;;7.88;7.07;;;;;;;18.46;100.00;94344.78;5095726;28;20207;-61
2022/06/12 10:16:43;;;;;;;8.68;7.88;;;;;;;18.47;100.00;94355.84;5063667;28;20269;-62
2022/06/12 10:19:35;;;;;;;8.20;7.40;;;;;;;18.54;100.00;94361.88;5095445;28;20563;-62
2022/06/12 10:22:19;;;;;;;8.00;6.45;;;;;;;18.66;100.00;94350.91;5089339;28;20249;-61
2022/06/12 10:24:51;;;;;;;7.90;7.10;;;;;;;18.63;100.00;94358.16;5093532;28;20318;-62
2022/06/12 10:27:19;;;;;;;9.13;7.38;;;;;;;18.65;100.00;94359.59;5094699;28;20187;-62
2022/06/12 10:29:55;;;;;;;10.73;8.20;;;;;;;18.84;100.00;94353.00;5093611;28;20201;-61
2022/06/12 10:32:24;;;;;;;10.35;7.38;;;;;;;18.80;100.00;94349.22;5068305;28;20584;-63
2022/06/12 10:34:51;;;;;;;7.50;6.80;;;;;;;18.86;100.00;94359.56;5092802;28;20188;-64
2022/06/12 10:37:28;;;;;;;7.70;6.95;;;;;;;19.11;100.00;94359.91;5088685;28;20742;-63
2022/06/12 10:40:04;;;;;;;8.88;7.28;;;;;;;19.05;100.00;94356.31;5074698;28;20185;-64
2022/06/12 10:42:38;;;;;;;6.95;6.20;;;;;;;18.93;100.00;94364.75;5056227;28;20180;-62
2022/06/12 10:45:04;;;;;;;8.27;7.47;;;;;;;19.05;100.00;94345.22;5074522;28;20169;-62
2022/06/12 10:47:32;;;;;;;7.43;6.03;;;;;;;19.04;100.00;94359.09;5075561;28;20188;-61
2022/06/12 10:50:13;;;;;;;7.40;6.63;;;;;;;19.15;100.00;94349.03;5055068;28;20188;-61
2022/06/12 10:52:50;;;;;;;7.00;5.28;;;;;;;19.09;100.00;94361.88;5074161;28;20188;-60
2022/06/12 10:55:18;;;;;;;6.82;6.22;;;;;;;19.18;100.00;94358.19;5074233;28;20241;-65
2022/06/12 10:57:51;;;;;;;8.07;6.40;;;;;;;19.30;100.00;94354.09;5073837;28;20228;-63
2022/06/12 11:00:24;;;;;;;8.18;6.43;;;;;;;19.40;100.00;94367.47;5074097;28;20169;-64
2022/06/12 11:02:56;;;;;;;6.68;5.97;;;;;;;19.83;100.00;94365.47;5073955;28;20679;-64
2022/06/12 11:05:40;;;;;;;6.85;5.50;;;;;;;19.92;100.00;94369.47;5073840;28;20643;-65
2022/06/12 11:08:32;;;;;;;6.35;5.75;;;;;;;20.24;100.00;94360.28;5073844;28;20709;-65
2022/06/12 11:11:05;;;;;;;5.40;4.90;;;;;;;20.05;100.00;94382.44;5073608;28;20175;-64
2022/06/12 11:13:51;;;;;;;5.43;4.95;;;;;;;19.99;100.00;94355.63;5055755;28;20607;-64
2022/06/12 11:16:55;;;;;;;8.52;5.50;;;;;;;19.99;100.00;94365.94;5073541;28;20249;-61
2022/06/12 11:19:43;;;;;;;6.35;5.85;;;;;;;20.14;100.00;94359.81;5073406;28;20220;-63
2022/06/12 11:22:33;;;;;;;6.00;5.50;;;;;;;20.39;100.00;94348.78;5073570;28;20161;-65
2022/06/12 11:25:23;;;;;;;5.43;4.93;;;;;;;20.74;100.00;94395.91;5073510;28;20180;-66
2022/06/12 11:28:22;;;;;;;6.00;5.18;;;;;;;21.33;100.00;94376.00;5093452;22;20747;-64
2022/06/12 11:30:58;;;;;;;8.82;5.00;;;;;;;21.71;100.00;94374.31;5093643;28;20184;-64
2022/06/12 11:33:33;;;;;;;8.55;5.35;;;;;;;21.52;100.00;94392.47;5093831;28;20229;-64
2022/06/12 11:36:35;;;;;;;7.70;5.18;;;;;;;21.36;100.00;94379.97;5093694;28;20282;-64
2022/06/12 11:39:08;;;;;;;9.77;8.80;;;;;;;22.05;100.00;94346.53;5039408;28;20689;-64
2022/06/12 11:41:48;;;;;;;7.05;6.18;;;;;;;21.91;100.00;94337.25;5093333;28;20670;-65
2022/06/12 11:44:30;;;;;;;6.43;5.45;;;;;;;21.83;100.00;94368.53;5093372;28;20225;-66
2022/06/12 11:47:02;;;;;;;6.10;5.50;;;;;;;21.95;100.00;94396.16;5093345;28;20182;-65
2022/06/12 11:49:27;;;;;;;5.35;4.85;;;;;;;22.07;100.00;94389.34;5093183;28;20200;-65
2022/06/12 11:52:13;;;;;;;5.47;4.97;;;;;;;22.00;100.00;94380.81;5093405;28;20657;-66
2022/06/12 11:54:58;;;;;;;13.85;11.00;;;;;;;21.70;100.00;94364.97;5093020;28;20249;-66
2022/06/12 11:57:45;;;;;;;9.00;7.32;;;;;;;22.02;100.00;94326.25;5093277;28;20212;-66